sensor_id;sensor_type;location;lat;lon;timestamp;P1;durP1;ratioP1;P2;durP2;ratioP2
13832;SDS011;6987;19.472;-99.276;2024-01-07T00:00:37;2.25;;;1.50;;
13832;SDS011;6987;19.472;-99.276;2024-01-07T00:03:06;2.15;;;1.30;;
13832;SDS011;6987;19.472;-99.276;2024-01-07T00:05:35;2.38;;;1.40;;
13832;SDS011;6987;19.472;-99.276;2024-01-07T00:08:07;2.20;;;1.30;;
13832;SDS011;6987;19.472;-99.276;2024-01-07T00:10:36;2.15;;;1.30;;
13832;SDS011;6987;19.472;-99.276;2024-01-07T00:13:05;2.28;;;2.00;;
13832;SDS011;6987;19.472;-99.276;2024-01-07T00:15:34;2.72;;;1.92;;
13832;SDS011;6987;19.472;-99.276;2024-01-07T00:18:03;4.63;;;1.88;;
13832;SDS011;6987;19.472;-99.276;2024-01-07T00:20:33;3.53;;;1.60;;
13832;SDS011;6987;19.472;-99.276;2024-01-07T00:23:02;9.10;;;2.30;;
13832;SDS011;6987;19.472;-99.276;2024-01-07T00:25:33;3.40;;;1.90;;
13832;SDS011;6987;19.472;-99.276;2024-01-07T00:28:02;3.83;;;1.58;;
13832;SDS011;6987;19.472;-99.276;2024-01-07T00:30:31;4.35;;;1.85;;
13832;SDS011;6987;19.472;-99.276;2024-01-07T00:33:00;2.13;;;1.50;;
13832;SDS011;6987;19.472;-99.276;2024-01-07T00:35:29;2.63;;;1.52;;
13832;SDS011;6987;19.472;-99.276;2024-01-07T00:37:58;2.80;;;1.55;;
13832;SDS011;6987;19.472;-99.276;2024-01-07T00:40:28;4.50;;;1.63;;
13832;SDS011;6987;19.472;-99.276;2024-01-07T00:42:59;2.63;;;1.45;;
13832;SDS011;6987;19.472;-99.276;2024-01-07T00:45:28;3.53;;;1.83;;
13832;SDS011;6987;19.472;-99.276;2024-01-07T00:47:57;1.73;;;1.63;;
13832;SDS011;6987;19.472;-99.276;2024-01-07T00:50:26;3.85;;;1.90;;
13832;SDS011;6987;19.472;-99.276;2024-01-07T00:52:55;2.05;;;1.73;;
13832;SDS011;6987;19.472;-99.276;2024-01-07T00:55:25;2.17;;;1.65;;
13832;SDS011;6987;19.472;-99.276;2024-01-07T00:57:55;1.80;;;1.50;;
13832;SDS011;6987;19.472;-99.276;2024-01-07T01:00:26;1.92;;;1.65;;
13832;SDS011;6987;19.472;-99.276;2024-01-07T01:02:56;2.33;;;1.48;;
13832;SDS011;6987;19.472;-99.276;2024-01-07T01:05:25;4.65;;;1.83;;
13832;SDS011;6987;19.472;-99.276;2024-01-07T01:07:54;6.38;;;1.40;;
13832;SDS011;6987;19.472;-99.276;2024-01-07T01:10:23;2.53;;;1.55;;
13832;SDS011;6987;19.472;-99.276;2024-01-07T01:12:52;4.70;;;1.90;;
13832;SDS011;6987;19.472;-99.276;2024-01-07T01:15:21;4.60;;;1.65;;
13832;SDS011;6987;19.472;-99.276;2024-01-07T01:17:52;3.75;;;1.73;;
13832;SDS011;6987;19.472;-99.276;2024-01-07T01:20:21;3.10;;;2.75;;
13832;SDS011;6987;19.472;-99.276;2024-01-07T01:22:50;5.88;;;2.08;;
13832;SDS011;6987;19.472;-99.276;2024-01-07T01:25:19;4.05;;;2.40;;
13832;SDS011;6987;19.472;-99.276;2024-01-07T01:27:48;2.75;;;2.05;;
13832;SDS011;6987;19.472;-99.276;2024-01-07T01:30:16;3.97;;;2.38;;
13832;SDS011;6987;19.472;-99.276;2024-01-07T01:32:46;2.03;;;1.92;;
13832;SDS011;6987;19.472;-99.276;2024-01-07T01:35:16;7.72;;;2.58;;
13832;SDS011;6987;19.472;-99.276;2024-01-07T01:37:46;3.17;;;2.55;;
13832;SDS011;6987;19.472;-99.276;2024-01-07T01:40:16;2.40;;;2.25;;
13832;SDS011;6987;19.472;-99.276;2024-01-07T01:42:46;2.75;;;2.55;;
13832;SDS011;6987;19.472;-99.276;2024-01-07T01:45:15;2.30;;;2.13;;
13832;SDS011;6987;19.472;-99.276;2024-01-07T01:47:46;3.00;;;2.25;;
13832;SDS011;6987;19.472;-99.276;2024-01-07T01:50:19;2.70;;;2.50;;
13832;SDS011;6987;19.472;-99.276;2024-01-07T01:52:48;3.33;;;2.45;;
13832;SDS011;6987;19.472;-99.276;2024-01-07T01:55:17;2.72;;;2.53;;
13832;SDS011;6987;19.472;-99.276;2024-01-07T01:57:46;2.60;;;2.40;;
13832;SDS011;6987;19.472;-99.276;2024-01-07T02:00:16;5.72;;;2.75;;
13832;SDS011;6987;19.472;-99.276;2024-01-07T02:02:45;2.47;;;2.25;;
13832;SDS011;6987;19.472;-99.276;2024-01-07T02:05:14;4.57;;;2.65;;
13832;SDS011;6987;19.472;-99.276;2024-01-07T02:07:45;7.15;;;2.85;;
13832;SDS011;6987;19.472;-99.276;2024-01-07T02:10:14;7.03;;;2.95;;
13832;SDS011;6987;19.472;-99.276;2024-01-07T02:12:43;5.32;;;2.78;;
13832;SDS011;6987;19.472;-99.276;2024-01-07T02:15:12;3.85;;;2.60;;
13832;SDS011;6987;19.472;-99.276;2024-01-07T02:17:42;8.60;;;2.63;;
13832;SDS011;6987;19.472;-99.276;2024-01-07T02:20:11;5.38;;;2.42;;
13832;SDS011;6987;19.472;-99.276;2024-01-07T02:22:40;5.20;;;3.00;;
13832;SDS011;6987;19.472;-99.276;2024-01-07T02:25:10;3.25;;;2.65;;
13832;SDS011;6987;19.472;-99.276;2024-01-07T02:27:39;5.53;;;2.70;;
13832;SDS011;6987;19.472;-99.276;2024-01-07T02:30:08;3.78;;;2.97;;
13832;SDS011;6987;19.472;-99.276;2024-01-07T02:32:38;4.53;;;2.47;;
13832;SDS011;6987;19.472;-99.276;2024-01-07T02:35:06;4.22;;;2.53;;
13832;SDS011;6987;19.472;-99.276;2024-01-07T02:37:36;4.15;;;2.38;;
13832;SDS011;6987;19.472;-99.276;2024-01-07T02:40:05;4.60;;;2.97;;
13832;SDS011;6987;19.472;-99.276;2024-01-07T02:42:36;3.78;;;2.42;;
13832;SDS011;6987;19.472;-99.276;2024-01-07T02:45:05;3.22;;;2.67;;
13832;SDS011;6987;19.472;-99.276;2024-01-07T02:47:34;2.30;;;2.20;;
13832;SDS011;6987;19.472;-99.276;2024-01-07T02:50:03;3.00;;;2.35;;
13832;SDS011;6987;19.472;-99.276;2024-01-07T02:52:32;5.75;;;2.90;;
13832;SDS011;6987;19.472;-99.276;2024-01-07T02:55:02;5.30;;;3.42;;
13832;SDS011;6987;19.472;-99.276;2024-01-07T02:57:31;2.83;;;2.53;;
13832;SDS011;6987;19.472;-99.276;2024-01-07T03:00:02;2.83;;;2.63;;
13832;SDS011;6987;19.472;-99.276;2024-01-07T03:02:33;3.80;;;2.45;;
13832;SDS011;6987;19.472;-99.276;2024-01-07T03:05:02;4.03;;;2.83;;
13832;SDS011;6987;19.472;-99.276;2024-01-07T03:07:32;3.50;;;2.97;;
13832;SDS011;6987;19.472;-99.276;2024-01-07T03:10:01;4.20;;;3.08;;
13832;SDS011;6987;19.472;-99.276;2024-01-07T03:12:31;4.07;;;3.22;;
13832;SDS011;6987;19.472;-99.276;2024-01-07T03:14:59;6.40;;;3.15;;
13832;SDS011;6987;19.472;-99.276;2024-01-07T03:17:30;8.63;;;3.17;;
13832;SDS011;6987;19.472;-99.276;2024-01-07T03:19:59;7.60;;;3.00;;
13832;SDS011;6987;19.472;-99.276;2024-01-07T03:22:28;6.43;;;3.00;;
13832;SDS011;6987;19.472;-99.276;2024-01-07T03:24:57;8.75;;;3.97;;
13832;SDS011;6987;19.472;-99.276;2024-01-07T03:27:26;5.47;;;3.33;;
13832;SDS011;6987;19.472;-99.276;2024-01-07T03:29:56;8.90;;;4.35;;
13832;SDS011;6987;19.472;-99.276;2024-01-07T03:32:25;12.85;;;3.50;;
13832;SDS011;6987;19.472;-99.276;2024-01-07T03:34:56;5.78;;;3.63;;
13832;SDS011;6987;19.472;-99.276;2024-01-07T03:37:26;10.25;;;3.80;;
13832;SDS011;6987;19.472;-99.276;2024-01-07T03:39:55;8.40;;;3.25;;
13832;SDS011;6987;19.472;-99.276;2024-01-07T03:42:25;7.47;;;3.30;;
13832;SDS011;6987;19.472;-99.276;2024-01-07T03:44:54;8.77;;;3.30;;
13832;SDS011;6987;19.472;-99.276;2024-01-07T03:47:24;7.13;;;3.40;;
13832;SDS011;6987;19.472;-99.276;2024-01-07T03:49:53;9.50;;;3.90;;
13832;SDS011;6987;19.472;-99.276;2024-01-07T03:52:24;6.05;;;3.63;;
13832;SDS011;6987;19.472;-99.276;2024-01-07T03:54:54;10.00;;;4.30;;
13832;SDS011;6987;19.472;-99.276;2024-01-07T03:57:24;9.13;;;3.75;;
13832;SDS011;6987;19.472;-99.276;2024-01-07T03:59:53;6.53;;;3.50;;
13832;SDS011;6987;19.472;-99.276;2024-01-07T04:02:21;13.25;;;3.20;;
13832;SDS011;6987;19.472;-99.276;2024-01-07T04:04:51;14.07;;;3.85;;
13832;SDS011;6987;19.472;-99.276;2024-01-07T04:07:20;5.70;;;3.47;;
13832;SDS011;6987;19.472;-99.276;2024-01-07T04:09:50;8.55;;;3.40;;
13832;SDS011;6987;19.472;-99.276;2024-01-07T04:12:19;5.38;;;3.58;;
13832;SDS011;6987;19.472;-99.276;2024-01-07T04:14:48;4.18;;;2.95;;
13832;SDS011;6987;19.472;-99.276;2024-01-07T04:17:17;6.85;;;3.40;;
13832;SDS011;6987;19.472;-99.276;2024-01-07T04:19:46;6.10;;;2.97;;
13832;SDS011;6987;19.472;-99.276;2024-01-07T04:22:15;6.72;;;3.08;;
13832;SDS011;6987;19.472;-99.276;2024-01-07T04:24:43;3.13;;;2.72;;
13832;SDS011;6987;19.472;-99.276;2024-01-07T04:27:14;5.55;;;3.00;;
13832;SDS011;6987;19.472;-99.276;2024-01-07T04:29:43;4.90;;;2.55;;
13832;SDS011;6987;19.472;-99.276;2024-01-07T04:32:12;2.95;;;2.20;;
13832;SDS011;6987;19.472;-99.276;2024-01-07T04:34:41;2.25;;;2.03;;
13832;SDS011;6987;19.472;-99.276;2024-01-07T04:37:11;2.70;;;2.50;;
13832;SDS011;6987;19.472;-99.276;2024-01-07T04:39:41;9.93;;;2.90;;
13832;SDS011;6987;19.472;-99.276;2024-01-07T04:42:10;4.47;;;3.00;;
13832;SDS011;6987;19.472;-99.276;2024-01-07T04:44:41;7.53;;;3.17;;
13832;SDS011;6987;19.472;-99.276;2024-01-07T04:47:22;5.80;;;2.78;;
13832;SDS011;6987;19.472;-99.276;2024-01-07T04:49:51;7.10;;;3.22;;
13832;SDS011;6987;19.472;-99.276;2024-01-07T04:52:21;6.88;;;2.83;;
13832;SDS011;6987;19.472;-99.276;2024-01-07T04:54:50;5.25;;;3.00;;
13832;SDS011;6987;19.472;-99.276;2024-01-07T04:57:19;5.28;;;3.50;;
13832;SDS011;6987;19.472;-99.276;2024-01-07T04:59:50;5.80;;;3.00;;
13832;SDS011;6987;19.472;-99.276;2024-01-07T05:02:20;4.00;;;2.38;;
13832;SDS011;6987;19.472;-99.276;2024-01-07T05:04:49;5.15;;;2.50;;
13832;SDS011;6987;19.472;-99.276;2024-01-07T05:07:19;4.35;;;2.50;;
13832;SDS011;6987;19.472;-99.276;2024-01-07T05:09:47;5.80;;;2.65;;
13832;SDS011;6987;19.472;-99.276;2024-01-07T05:12:16;4.22;;;2.60;;
13832;SDS011;6987;19.472;-99.276;2024-01-07T05:14:45;3.17;;;2.65;;
13832;SDS011;6987;19.472;-99.276;2024-01-07T05:17:16;7.63;;;3.25;;
13832;SDS011;6987;19.472;-99.276;2024-01-07T05:19:45;4.55;;;2.58;;
13832;SDS011;6987;19.472;-99.276;2024-01-07T05:22:14;4.45;;;2.80;;
13832;SDS011;6987;19.472;-99.276;2024-01-07T05:24:43;8.80;;;2.70;;
13832;SDS011;6987;19.472;-99.276;2024-01-07T05:27:12;6.07;;;2.47;;
13832;SDS011;6987;19.472;-99.276;2024-01-07T05:29:44;9.35;;;2.80;;
13832;SDS011;6987;19.472;-99.276;2024-01-07T05:32:16;8.95;;;3.08;;
13832;SDS011;6987;19.472;-99.276;2024-01-07T05:34:45;3.65;;;2.30;;
13832;SDS011;6987;19.472;-99.276;2024-01-07T05:37:14;7.35;;;2.10;;
13832;SDS011;6987;19.472;-99.276;2024-01-07T05:39:44;10.88;;;2.63;;
13832;SDS011;6987;19.472;-99.276;2024-01-07T05:42:13;12.15;;;2.42;;
13832;SDS011;6987;19.472;-99.276;2024-01-07T05:44:42;8.02;;;2.35;;
13832;SDS011;6987;19.472;-99.276;2024-01-07T05:47:12;6.85;;;2.47;;
13832;SDS011;6987;19.472;-99.276;2024-01-07T05:49:44;5.35;;;2.17;;
13832;SDS011;6987;19.472;-99.276;2024-01-07T05:52:13;6.65;;;1.90;;
13832;SDS011;6987;19.472;-99.276;2024-01-07T05:54:42;5.05;;;1.90;;
13832;SDS011;6987;19.472;-99.276;2024-01-07T05:57:11;5.68;;;2.35;;
13832;SDS011;6987;19.472;-99.276;2024-01-07T05:59:40;2.13;;;1.80;;
13832;SDS011;6987;19.472;-99.276;2024-01-07T06:02:09;5.60;;;1.88;;
13832;SDS011;6987;19.472;-99.276;2024-01-07T06:04:38;5.15;;;2.00;;
13832;SDS011;6987;19.472;-99.276;2024-01-07T06:07:09;5.13;;;1.90;;
13832;SDS011;6987;19.472;-99.276;2024-01-07T06:09:38;6.40;;;1.83;;
13832;SDS011;6987;19.472;-99.276;2024-01-07T06:12:08;3.75;;;1.33;;
13832;SDS011;6987;19.472;-99.276;2024-01-07T06:14:37;3.50;;;1.35;;
13832;SDS011;6987;19.472;-99.276;2024-01-07T06:17:07;2.15;;;1.80;;
13832;SDS011;6987;19.472;-99.276;2024-01-07T06:19:35;5.28;;;1.30;;
13832;SDS011;6987;19.472;-99.276;2024-01-07T06:22:05;4.57;;;1.95;;
13832;SDS011;6987;19.472;-99.276;2024-01-07T06:24:36;6.47;;;1.50;;
13832;SDS011;6987;19.472;-99.276;2024-01-07T06:27:05;2.33;;;1.42;;
13832;SDS011;6987;19.472;-99.276;2024-01-07T06:29:34;8.60;;;1.70;;
13832;SDS011;6987;19.472;-99.276;2024-01-07T06:32:03;1.60;;;1.50;;
13832;SDS011;6987;19.472;-99.276;2024-01-07T06:34:32;1.88;;;1.25;;
13832;SDS011;6987;19.472;-99.276;2024-01-07T06:37:01;2.30;;;1.23;;
13832;SDS011;6987;19.472;-99.276;2024-01-07T06:39:31;1.10;;;1.05;;
13832;SDS011;6987;19.472;-99.276;2024-01-07T06:42:01;6.53;;;1.45;;
13832;SDS011;6987;19.472;-99.276;2024-01-07T06:44:30;6.25;;;1.45;;
13832;SDS011;6987;19.472;-99.276;2024-01-07T06:47:00;3.25;;;1.30;;
13832;SDS011;6987;19.472;-99.276;2024-01-07T06:49:29;2.40;;;1.08;;
13832;SDS011;6987;19.472;-99.276;2024-01-07T06:51:58;3.55;;;1.13;;
13832;SDS011;6987;19.472;-99.276;2024-01-07T06:54:27;3.35;;;1.05;;
13832;SDS011;6987;19.472;-99.276;2024-01-07T06:56:56;6.63;;;1.42;;
13832;SDS011;6987;19.472;-99.276;2024-01-07T06:59:27;1.98;;;0.95;;
13832;SDS011;6987;19.472;-99.276;2024-01-07T07:01:56;3.55;;;1.00;;
13832;SDS011;6987;19.472;-99.276;2024-01-07T07:04:25;3.92;;;1.38;;
13832;SDS011;6987;19.472;-99.276;2024-01-07T07:06:54;1.58;;;1.02;;
13832;SDS011;6987;19.472;-99.276;2024-01-07T07:09:25;1.15;;;1.10;;
13832;SDS011;6987;19.472;-99.276;2024-01-07T07:11:55;0.90;;;0.90;;
13832;SDS011;6987;19.472;-99.276;2024-01-07T07:14:24;3.83;;;0.73;;
13832;SDS011;6987;19.472;-99.276;2024-01-07T07:16:54;0.70;;;0.70;;
13832;SDS011;6987;19.472;-99.276;2024-01-07T07:19:24;3.97;;;1.00;;
13832;SDS011;6987;19.472;-99.276;2024-01-07T07:21:53;4.15;;;1.05;;
13832;SDS011;6987;19.472;-99.276;2024-01-07T07:24:22;2.50;;;1.30;;
13832;SDS011;6987;19.472;-99.276;2024-01-07T07:26:52;1.40;;;0.90;;
13832;SDS011;6987;19.472;-99.276;2024-01-07T07:29:21;1.63;;;0.73;;
13832;SDS011;6987;19.472;-99.276;2024-01-07T07:31:50;0.80;;;0.80;;
13832;SDS011;6987;19.472;-99.276;2024-01-07T07:34:21;1.10;;;0.80;;
13832;SDS011;6987;19.472;-99.276;2024-01-07T07:36:51;3.60;;;1.00;;
13832;SDS011;6987;19.472;-99.276;2024-01-07T07:39:21;1.00;;;1.00;;
13832;SDS011;6987;19.472;-99.276;2024-01-07T07:41:50;5.65;;;1.30;;
13832;SDS011;6987;19.472;-99.276;2024-01-07T07:44:20;2.05;;;1.10;;
13832;SDS011;6987;19.472;-99.276;2024-01-07T07:46:48;1.67;;;1.38;;
13832;SDS011;6987;19.472;-99.276;2024-01-07T07:49:18;2.03;;;1.10;;
13832;SDS011;6987;19.472;-99.276;2024-01-07T07:51:49;1.10;;;1.10;;
13832;SDS011;6987;19.472;-99.276;2024-01-07T07:54:18;0.98;;;0.98;;
13832;SDS011;6987;19.472;-99.276;2024-01-07T07:56:48;0.80;;;0.80;;
13832;SDS011;6987;19.472;-99.276;2024-01-07T07:59:18;1.20;;;1.20;;
13832;SDS011;6987;19.472;-99.276;2024-01-07T08:01:47;1.30;;;0.95;;
13832;SDS011;6987;19.472;-99.276;2024-01-07T08:04:16;3.13;;;1.15;;
13832;SDS011;6987;19.472;-99.276;2024-01-07T08:06:45;2.60;;;1.15;;
13832;SDS011;6987;19.472;-99.276;2024-01-07T08:09:17;1.25;;;1.15;;
13832;SDS011;6987;19.472;-99.276;2024-01-07T08:11:46;2.67;;;1.02;;
13832;SDS011;6987;19.472;-99.276;2024-01-07T08:14:16;1.67;;;1.30;;
13832;SDS011;6987;19.472;-99.276;2024-01-07T08:16:44;1.23;;;1.10;;
13832;SDS011;6987;19.472;-99.276;2024-01-07T08:19:13;2.70;;;1.27;;
13832;SDS011;6987;19.472;-99.276;2024-01-07T08:21:42;3.03;;;0.90;;
13832;SDS011;6987;19.472;-99.276;2024-01-07T08:24:11;2.85;;;1.42;;
13832;SDS011;6987;19.472;-99.276;2024-01-07T08:26:42;1.77;;;1.00;;
13832;SDS011;6987;19.472;-99.276;2024-01-07T08:29:11;1.30;;;1.20;;
13832;SDS011;6987;19.472;-99.276;2024-01-07T08:31:40;4.25;;;1.20;;
13832;SDS011;6987;19.472;-99.276;2024-01-07T08:34:09;1.58;;;1.23;;
13832;SDS011;6987;19.472;-99.276;2024-01-07T08:36:39;2.35;;;1.20;;
13832;SDS011;6987;19.472;-99.276;2024-01-07T08:39:08;1.40;;;1.30;;
13832;SDS011;6987;19.472;-99.276;2024-01-07T08:41:37;3.70;;;1.63;;
13832;SDS011;6987;19.472;-99.276;2024-01-07T08:44:09;6.25;;;1.33;;
13832;SDS011;6987;19.472;-99.276;2024-01-07T08:46:37;3.95;;;1.40;;
13832;SDS011;6987;19.472;-99.276;2024-01-07T08:49:06;2.88;;;1.35;;
13832;SDS011;6987;19.472;-99.276;2024-01-07T08:51:36;1.58;;;1.48;;
13832;SDS011;6987;19.472;-99.276;2024-01-07T08:54:05;8.48;;;1.38;;
13832;SDS011;6987;19.472;-99.276;2024-01-07T08:56:33;1.48;;;1.38;;
13832;SDS011;6987;19.472;-99.276;2024-01-07T08:59:03;2.80;;;1.60;;
13832;SDS011;6987;19.472;-99.276;2024-01-07T09:01:33;1.65;;;1.25;;
13832;SDS011;6987;19.472;-99.276;2024-01-07T09:04:02;3.53;;;1.48;;
13832;SDS011;6987;19.472;-99.276;2024-01-07T09:06:31;1.48;;;1.38;;
13832;SDS011;6987;19.472;-99.276;2024-01-07T09:09:00;2.90;;;1.75;;
13832;SDS011;6987;19.472;-99.276;2024-01-07T09:11:31;5.38;;;1.70;;
13832;SDS011;6987;19.472;-99.276;2024-01-07T09:14:02;3.88;;;1.65;;
13832;SDS011;6987;19.472;-99.276;2024-01-07T09:16:31;2.08;;;1.58;;
13832;SDS011;6987;19.472;-99.276;2024-01-07T09:19:02;2.58;;;1.38;;
13832;SDS011;6987;19.472;-99.276;2024-01-07T09:21:31;1.73;;;1.52;;
13832;SDS011;6987;19.472;-99.276;2024-01-07T09:24:00;7.03;;;1.88;;
13832;SDS011;6987;19.472;-99.276;2024-01-07T09:26:29;4.05;;;1.40;;
13832;SDS011;6987;19.472;-99.276;2024-01-07T09:28:58;2.03;;;1.23;;
13832;SDS011;6987;19.472;-99.276;2024-01-07T09:31:27;3.22;;;1.88;;
13832;SDS011;6987;19.472;-99.276;2024-01-07T09:33:56;1.67;;;1.45;;
13832;SDS011;6987;19.472;-99.276;2024-01-07T09:36:26;1.40;;;1.30;;
13832;SDS011;6987;19.472;-99.276;2024-01-07T09:38:55;1.27;;;1.17;;
13832;SDS011;6987;19.472;-99.276;2024-01-07T09:41:24;1.95;;;1.30;;
13832;SDS011;6987;19.472;-99.276;2024-01-07T09:43:53;1.40;;;1.30;;
13832;SDS011;6987;19.472;-99.276;2024-01-07T09:46:23;1.25;;;1.15;;
13832;SDS011;6987;19.472;-99.276;2024-01-07T09:48:53;5.05;;;1.40;;
13832;SDS011;6987;19.472;-99.276;2024-01-07T09:51:22;3.40;;;1.63;;
13832;SDS011;6987;19.472;-99.276;2024-01-07T09:53:55;1.90;;;1.70;;
13832;SDS011;6987;19.472;-99.276;2024-01-07T09:56:26;4.88;;;1.88;;
13832;SDS011;6987;19.472;-99.276;2024-01-07T09:58:58;2.55;;;1.33;;
13832;SDS011;6987;19.472;-99.276;2024-01-07T10:01:27;1.50;;;1.40;;
13832;SDS011;6987;19.472;-99.276;2024-01-07T10:03:56;1.33;;;1.15;;
13832;SDS011;6987;19.472;-99.276;2024-01-07T10:06:41;3.58;;;1.20;;
13832;SDS011;6987;19.472;-99.276;2024-01-07T10:09:13;2.10;;;1.52;;
13832;SDS011;6987;19.472;-99.276;2024-01-07T10:11:42;6.80;;;1.60;;
13832;SDS011;6987;19.472;-99.276;2024-01-07T10:14:11;1.42;;;1.33;;
13832;SDS011;6987;19.472;-99.276;2024-01-07T10:16:40;1.42;;;1.30;;
13832;SDS011;6987;19.472;-99.276;2024-01-07T10:19:09;1.25;;;1.25;;
13832;SDS011;6987;19.472;-99.276;2024-01-07T10:21:38;1.63;;;1.27;;
13832;SDS011;6987;19.472;-99.276;2024-01-07T10:24:07;2.25;;;1.48;;
13832;SDS011;6987;19.472;-99.276;2024-01-07T10:26:38;1.88;;;1.35;;
13832;SDS011;6987;19.472;-99.276;2024-01-07T10:29:08;1.35;;;1.17;;
13832;SDS011;6987;19.472;-99.276;2024-01-07T10:31:38;4.45;;;1.50;;
13832;SDS011;6987;19.472;-99.276;2024-01-07T10:34:07;2.78;;;1.60;;
13832;SDS011;6987;19.472;-99.276;2024-01-07T10:36:36;1.40;;;1.30;;
13832;SDS011;6987;19.472;-99.276;2024-01-07T10:39:05;1.63;;;1.38;;
13832;SDS011;6987;19.472;-99.276;2024-01-07T10:41:34;3.25;;;1.65;;
13832;SDS011;6987;19.472;-99.276;2024-01-07T10:44:07;1.77;;;1.67;;
13832;SDS011;6987;19.472;-99.276;2024-01-07T10:46:36;3.10;;;1.83;;
13832;SDS011;6987;19.472;-99.276;2024-01-07T10:49:07;1.65;;;1.50;;
13832;SDS011;6987;19.472;-99.276;2024-01-07T10:51:37;1.75;;;1.65;;
13832;SDS011;6987;19.472;-99.276;2024-01-07T10:54:08;1.33;;;1.30;;
13832;SDS011;6987;19.472;-99.276;2024-01-07T10:56:38;4.68;;;1.60;;
13832;SDS011;6987;19.472;-99.276;2024-01-07T10:59:10;2.13;;;1.65;;
13832;SDS011;6987;19.472;-99.276;2024-01-07T11:01:38;2.20;;;2.00;;
13832;SDS011;6987;19.472;-99.276;2024-01-07T11:04:10;2.22;;;1.55;;
13832;SDS011;6987;19.472;-99.276;2024-01-07T11:06:42;2.75;;;1.83;;
13832;SDS011;6987;19.472;-99.276;2024-01-07T11:09:17;2.65;;;1.70;;
13832;SDS011;6987;19.472;-99.276;2024-01-07T11:11:49;3.42;;;2.15;;
13832;SDS011;6987;19.472;-99.276;2024-01-07T11:17:12;3.83;;;1.70;;
13832;SDS011;6987;19.472;-99.276;2024-01-07T11:19:49;2.10;;;2.00;;
13832;SDS011;6987;19.472;-99.276;2024-01-07T11:22:21;2.42;;;1.98;;
13832;SDS011;6987;19.472;-99.276;2024-01-07T11:24:53;1.77;;;1.35;;
13832;SDS011;6987;19.472;-99.276;2024-01-07T11:27:23;2.08;;;1.70;;
13832;SDS011;6987;19.472;-99.276;2024-01-07T11:29:53;1.63;;;1.58;;
13832;SDS011;6987;19.472;-99.276;2024-01-07T11:32:24;1.58;;;1.48;;
13832;SDS011;6987;19.472;-99.276;2024-01-07T11:34:57;1.80;;;1.70;;
13832;SDS011;6987;19.472;-99.276;2024-01-07T11:37:25;3.30;;;1.60;;
13832;SDS011;6987;19.472;-99.276;2024-01-07T11:39:55;2.53;;;1.92;;
13832;SDS011;6987;19.472;-99.276;2024-01-07T11:42:24;5.45;;;2.20;;
13832;SDS011;6987;19.472;-99.276;2024-01-07T11:44:53;1.80;;;1.70;;
13832;SDS011;6987;19.472;-99.276;2024-01-07T11:47:22;2.22;;;1.83;;
13832;SDS011;6987;19.472;-99.276;2024-01-07T11:49:55;1.67;;;1.67;;
13832;SDS011;6987;19.472;-99.276;2024-01-07T11:52:25;1.55;;;1.45;;
13832;SDS011;6987;19.472;-99.276;2024-01-07T11:54:55;1.38;;;1.27;;
13832;SDS011;6987;19.472;-99.276;2024-01-07T11:57:24;2.50;;;1.48;;
13832;SDS011;6987;19.472;-99.276;2024-01-07T11:59:53;2.58;;;1.80;;
13832;SDS011;6987;19.472;-99.276;2024-01-07T12:02:22;2.58;;;1.60;;
13832;SDS011;6987;19.472;-99.276;2024-01-07T12:04:57;5.18;;;1.58;;
13832;SDS011;6987;19.472;-99.276;2024-01-07T12:07:26;1.63;;;1.50;;
13832;SDS011;6987;19.472;-99.276;2024-01-07T12:09:56;1.35;;;1.30;;
13832;SDS011;6987;19.472;-99.276;2024-01-07T12:12:26;1.48;;;1.38;;
13832;SDS011;6987;19.472;-99.276;2024-01-07T12:14:55;3.50;;;1.77;;
13832;SDS011;6987;19.472;-99.276;2024-01-07T12:17:26;1.42;;;1.33;;
13832;SDS011;6987;19.472;-99.276;2024-01-07T12:19:58;1.58;;;1.48;;
13832;SDS011;6987;19.472;-99.276;2024-01-07T12:22:30;1.90;;;1.73;;
13832;SDS011;6987;19.472;-99.276;2024-01-07T12:25:02;3.58;;;1.65;;
13832;SDS011;6987;19.472;-99.276;2024-01-07T12:27:31;2.35;;;1.73;;
13832;SDS011;6987;19.472;-99.276;2024-01-07T12:30:00;2.00;;;1.70;;
13832;SDS011;6987;19.472;-99.276;2024-01-07T12:32:29;2.42;;;2.03;;
13832;SDS011;6987;19.472;-99.276;2024-01-07T12:34:59;6.28;;;1.60;;
13832;SDS011;6987;19.472;-99.276;2024-01-07T12:37:28;2.17;;;1.85;;
13832;SDS011;6987;19.472;-99.276;2024-01-07T12:39:57;2.03;;;1.60;;
13832;SDS011;6987;19.472;-99.276;2024-01-07T12:42:26;2.65;;;2.45;;
13832;SDS011;6987;19.472;-99.276;2024-01-07T12:44:55;4.43;;;2.50;;
13832;SDS011;6987;19.472;-99.276;2024-01-07T12:47:22;4.93;;;2.40;;
13832;SDS011;6987;19.472;-99.276;2024-01-07T12:49:52;3.53;;;2.13;;
13832;SDS011;6987;19.472;-99.276;2024-01-07T12:52:23;7.72;;;2.58;;
13832;SDS011;6987;19.472;-99.276;2024-01-07T12:54:55;4.32;;;2.15;;
13832;SDS011;6987;19.472;-99.276;2024-01-07T12:57:24;3.95;;;2.30;;
13832;SDS011;6987;19.472;-99.276;2024-01-07T12:59:53;12.80;;;2.85;;
13832;SDS011;6987;19.472;-99.276;2024-01-07T13:02:22;6.35;;;2.97;;
13832;SDS011;6987;19.472;-99.276;2024-01-07T13:04:51;9.30;;;3.05;;
13832;SDS011;6987;19.472;-99.276;2024-01-07T13:07:22;4.55;;;2.80;;
13832;SDS011;6987;19.472;-99.276;2024-01-07T13:09:51;3.10;;;2.72;;
13832;SDS011;6987;19.472;-99.276;2024-01-07T13:12:20;3.28;;;2.97;;
13832;SDS011;6987;19.472;-99.276;2024-01-07T13:14:50;7.93;;;3.28;;
13832;SDS011;6987;19.472;-99.276;2024-01-07T13:17:19;8.25;;;3.60;;
13832;SDS011;6987;19.472;-99.276;2024-01-07T13:19:48;15.23;;;4.22;;
13832;SDS011;6987;19.472;-99.276;2024-01-07T13:22:18;13.73;;;4.35;;
13832;SDS011;6987;19.472;-99.276;2024-01-07T13:24:48;12.75;;;3.38;;
13832;SDS011;6987;19.472;-99.276;2024-01-07T13:27:17;19.92;;;3.92;;
13832;SDS011;6987;19.472;-99.276;2024-01-07T13:29:47;12.63;;;3.45;;
13832;SDS011;6987;19.472;-99.276;2024-01-07T13:32:16;8.05;;;3.38;;
13832;SDS011;6987;19.472;-99.276;2024-01-07T13:34:45;12.98;;;3.15;;
13832;SDS011;6987;19.472;-99.276;2024-01-07T13:37:14;12.75;;;3.60;;
13832;SDS011;6987;19.472;-99.276;2024-01-07T13:39:44;8.38;;;3.15;;
13832;SDS011;6987;19.472;-99.276;2024-01-07T13:42:16;5.72;;;2.78;;
13832;SDS011;6987;19.472;-99.276;2024-01-07T13:44:45;11.63;;;3.10;;
13832;SDS011;6987;19.472;-99.276;2024-01-07T13:47:15;13.75;;;2.78;;
13832;SDS011;6987;19.472;-99.276;2024-01-07T13:49:44;9.30;;;2.33;;
13832;SDS011;6987;19.472;-99.276;2024-01-07T13:52:13;9.38;;;2.80;;
13832;SDS011;6987;19.472;-99.276;2024-01-07T13:54:43;11.10;;;3.15;;
13832;SDS011;6987;19.472;-99.276;2024-01-07T13:57:13;6.50;;;3.22;;
13832;SDS011;6987;19.472;-99.276;2024-01-07T13:59:44;6.45;;;2.55;;
13832;SDS011;6987;19.472;-99.276;2024-01-07T14:02:13;4.97;;;2.53;;
13832;SDS011;6987;19.472;-99.276;2024-01-07T14:04:44;7.20;;;2.45;;
13832;SDS011;6987;19.472;-99.276;2024-01-07T14:07:13;10.00;;;2.92;;
13832;SDS011;6987;19.472;-99.276;2024-01-07T14:09:42;14.23;;;2.97;;
13832;SDS011;6987;19.472;-99.276;2024-01-07T14:12:11;8.05;;;3.03;;
13832;SDS011;6987;19.472;-99.276;2024-01-07T14:14:41;10.77;;;3.65;;
13832;SDS011;6987;19.472;-99.276;2024-01-07T14:17:11;16.75;;;3.55;;
13832;SDS011;6987;19.472;-99.276;2024-01-07T14:19:40;14.10;;;3.03;;
13832;SDS011;6987;19.472;-99.276;2024-01-07T14:22:09;19.75;;;3.53;;
13832;SDS011;6987;19.472;-99.276;2024-01-07T14:24:38;16.67;;;3.88;;
13832;SDS011;6987;19.472;-99.276;2024-01-07T14:27:07;8.18;;;3.38;;
13832;SDS011;6987;19.472;-99.276;2024-01-07T14:29:37;12.38;;;2.95;;
13832;SDS011;6987;19.472;-99.276;2024-01-07T14:32:06;7.97;;;3.20;;
13832;SDS011;6987;19.472;-99.276;2024-01-07T14:34:40;9.43;;;3.30;;
13832;SDS011;6987;19.472;-99.276;2024-01-07T14:37:09;8.18;;;2.92;;
13832;SDS011;6987;19.472;-99.276;2024-01-07T14:39:38;17.60;;;3.85;;
13832;SDS011;6987;19.472;-99.276;2024-01-07T14:42:07;14.80;;;3.92;;
13832;SDS011;6987;19.472;-99.276;2024-01-07T14:44:36;13.50;;;3.42;;
13832;SDS011;6987;19.472;-99.276;2024-01-07T14:47:05;13.15;;;3.85;;
13832;SDS011;6987;19.472;-99.276;2024-01-07T14:49:34;14.98;;;3.38;;